Terminal Aerodrome Forecast
Issued by NWS Duluth, MN

Home | Current Version | Previous Version | Text Only | Print | Product List | Glossary On
Versions: 1 2 3 4 5 6 7 8 9 10 11 12 13 14
000
FTUS43 KDLH 241300 AAA
TAFDLH
TAF AMD
KDLH 241353Z 2414/2512 VRB03KT P6SM BKN070 OVC120
     FM241500 09006KT P6SM VCSH BKN060 OVC100
     FM242200 08006KT P6SM VCSH OVC050
     FM250200 09005KT 5SM -RA BKN035 OVC080
     FM250600 05012KT 2SM -RA BR SCT004 OVC010=

USA.gov is the U.S. government's official web portal to all federal, state and local government web resources and services.